Nearby METAR Reports

(scroll for additional cities)

KPSP - Palm Springs, California, USA
Distance from station: WNW 7mi, 11km
Updated: Tue, 21-Aug-2018 8:53pm PDT
Clear
Clear
 Wind from NNW
Wind: NNW 17 mph , 28 km/h, Gust: 26 mph , 43 km/h
Temperature: 99°F , 37°C
Dew Point: 59°F , 15°C
Humidity: 27%
Barometer: 29.84 inHg , 1010.5 hPa
Clouds: Clear
Visibility: 10 miles , 16 km
2018/08/22 03:53 KPSP 220353Z 33015G23KT 10SM CLR 37/15 A2984 RMK AO2 SLP100 T03720150
KTRM - Thermal/Palm Spg, California, USA
Distance from station: SE 16mi, 26km
Updated: Tue, 21-Aug-2018 8:52pm PDT
Clear
Clear
 Wind from ESE
Wind: ESE 13 mph , 20 km/h, Gust: 22 mph , 35 km/h
Temperature: 99°F , 37°C
Dew Point: 70°F , 21°C
Humidity: 39%
Barometer: 29.76 inHg , 1007.8 hPa
Clouds: Clear
Visibility: 10 miles , 16 km
2018/08/22 03:52 KTRM 220352Z AUTO 12011G19KT 10SM CLR 37/21 A2976 RMK AO2 SLP081 T03670206
 
KNXP - Twentynine Palms, California, USA
Distance from station: NNE 37mi, 60km
Updated: Tue, 21-Aug-2018 8:56pm PDT
Clear
Clear
 Wind from SW
Wind: SW 18 mph , 30 km/h
Temperature: 91°F , 33°C
Dew Point: 54°F , 12°C
Humidity: 28%
Barometer: 29.98 inHg , 1015.2 hPa
Clouds: Clear
Visibility: 10 miles , 16 km
2018/08/22 03:56 KNXP 220356Z AUTO 22016KT 10SM CLR 33/12 A2998 RMK AO2 SLP109 T03280117 PWINO PNO $
KL35 - Big Bear City, California, USA
Distance from station: NW 43mi, 69km
Updated: Tue, 21-Aug-2018 8:55pm PDT
Clear
Clear
 Wind from W
Wind: W 3 mph , 6 km/h
Temperature: 63°F , 17°C
Dew Point: 45°F , 7°C
Humidity: 52%
Barometer: 30.29 inHg , 1025.7 hPa
Clouds: Clear
Visibility: 10 miles , 16 km
2018/08/22 03:55 KL35 220355Z AUTO 26003KT 10SM CLR 17/07 A3029 RMK AO2
 
KF70 - Murrieta/Temecula, California, USA
Distance from station: WSW 45mi, 73km
Updated: Tue, 21-Aug-2018 8:55pm PDT
Clear
Clear
 Wind from S
Wind: S 7 mph , 11 km/h
Temperature: 73°F , 23°C
Dew Point: 61°F , 16°C
Humidity: 65%
Barometer: 30.00 inHg , 1015.9 hPa
Clouds: Clear
Visibility: 10 miles , 16 km
2018/08/22 03:55 KF70 220355Z AUTO 19006KT 10SM CLR 23/16 A3000 RMK AO1
KRIV - Riverside/March, California, USA
Distance from station: W 51mi, 82km
Updated: Tue, 21-Aug-2018 8:58pm PDT
Clear
Clear
 Wind from WNW
Wind: WNW 5 mph , 7 km/h
Temperature: 77°F , 25°C
Dew Point: 61°F , 16°C
Humidity: 57%
Barometer: 29.99 inHg , 1015.6 hPa
Clouds: Clear
Visibility: 10 miles , 16 km
2018/08/22 03:58 KRIV 220358Z AUTO 30004KT 10SM CLR 25/16 A2999 RMK AO2 SLPNO T02490155 $
 
KSBD - San Bernardino, California, USA
Distance from station: WNW 54mi, 86km
Updated: Tue, 21-Aug-2018 8:50pm PDT
Haze, Clear
Haze, Clear
 Wind from WSW
Wind: WSW 8 mph , 13 km/h
Temperature: 81°F , 27°C
Heat Index: 81°F , 27°C
Dew Point: 59°F , 15°C
Humidity: 48%
Barometer: 29.97 inHg , 1014.9 hPa
Summary: Haze
Clouds: Clear
Visibility: 6 miles , 10 km
2018/08/22 03:50 KSBD 220350Z 25007KT 6SM HZ SKC 27/15 A2997 RMK LAST
KRNM - Ramona, California, USA
Distance from station: SSW 60mi, 96km
Updated: Tue, 21-Aug-2018 8:53pm PDT
Clear
Clear
 Wind from W
Wind: W 7 mph , 11 km/h
Temperature: 70°F , 21°C
Dew Point: 61°F , 16°C
Humidity: 73%
Barometer: 30.00 inHg , 1015.9 hPa
Clouds: Clear
Visibility: 10 miles , 16 km
2018/08/22 03:53 KRNM 220353Z AUTO 28006KT 10SM CLR 21/16 A3000 RMK AO2 SLP145 T02110161
 
KRAL - Riverside, California, USA
Distance from station: W 62mi, 100km
Updated: Tue, 21-Aug-2018 8:53pm PDT
Clear
Clear
 Wind from W
Wind: W 7 mph , 11 km/h
Temperature: 75°F , 24°C
Dew Point: 63°F , 17°C
Humidity: 65%
Barometer: 29.96 inHg , 1014.6 hPa
Clouds: Clear
Visibility: 10 miles , 16 km
2018/08/22 03:53 KRAL 220353Z 27006KT 10SM CLR 24/17 A2996 RMK AO2 SLP129 T02440172 $
KOKB - Oceanside, California, USA
Distance from station: SW 68mi, 109km
Updated: Tue, 21-Aug-2018 8:52pm PDT
Mostly Cloudy
Mostly Cloudy
 Wind from WSW
Wind: WSW 8 mph , 13 km/h
Temperature: 73°F , 23°C
Dew Point: 64°F , 18°C
Humidity: 74%
Barometer: 29.95 inHg , 1014.2 hPa
Clouds: Mostly Cloudy
Visibility: 9 miles , 14 km
Cloud details: Mostly Cloudy 1600 ft
2018/08/22 03:52 KOKB 220352Z AUTO 24007KT 9SM BKN016 23/18 A2995 RMK AO2 SLP143 T02280183
 
KONT - Ontario, California, USA
Distance from station: WNW 71mi, 114km
Updated: Tue, 21-Aug-2018 8:53pm PDT
Clear
Clear
 Wind from WSW
Wind: WSW 10 mph , 17 km/h
Temperature: 75°F , 24°C
Dew Point: 63°F , 17°C
Humidity: 65%
Barometer: 29.95 inHg , 1014.2 hPa
Clouds: Clear
Visibility: 10 miles , 16 km
2018/08/22 03:53 KONT 220353Z 25009KT 10SM CLR 24/17 A2995 RMK AO2 SLP129 T02440167
KNJK - El Centro Naf, California, USA
Distance from station: SSE 78mi, 126km
Updated: Tue, 21-Aug-2018 8:56pm PDT
Few Clouds
Few Clouds
 Wind from SE
Wind: SE 10 mph , 17 km/h
Temperature: 93°F , 34°C
Heat Index: 96°F , 36°C
Dew Point: 66°F , 19°C
Humidity: 41%
Barometer: 29.81 inHg , 1009.5 hPa
Clouds: Few Clouds
Visibility: 10 miles , 16 km
Cloud details: Few Clouds 4000 ft
2018/08/22 03:56 KNJK 220356Z 14009KT 10SM FEW040 34/19 A2981 RMK AO2 SLP108 T03390189 $
 
KSEE - San Diego/Santee, California, USA
Distance from station: SSW 74mi, 120km
Updated: Tue, 21-Aug-2018 7:53pm PDT
NOT Current
Clear
Clear
 Wind from SW
Wind: SW 9 mph , 15 km/h
Temperature: 75°F , 24°C
Dew Point: 64°F , 18°C
Humidity: 69%
Barometer: 29.95 inHg , 1014.2 hPa
Clouds: Clear
Visibility: 10 miles , 16 km
2018/08/22 02:53 KSEE 220253Z 23008KT 10SM SKC 24/18 A2995
KCNO - Chino, California, USA
Distance from station: W 72mi, 116km
Updated: Tue, 21-Aug-2018 8:53pm PDT
Clear
Clear
 Wind from WNW
Wind: WNW 8 mph , 13 km/h
Temperature: 75°F , 24°C
Dew Point: 64°F , 18°C
Humidity: 69%
Barometer: 29.96 inHg , 1014.6 hPa
Clouds: Clear
Visibility: 7 miles , 11 km
2018/08/22 03:53 KCNO 220353Z AUTO 29007KT 7SM CLR 24/18 A2996 RMK AO2 SLP140 LAST T02440178